createdAt,value
2018-01-15T00:01:03.258Z,91.40
2018-01-15T00:03:30.106Z,91.30
2018-01-15T00:05:57.709Z,91.20
2018-01-15T00:08:24.541Z,91.20
2018-01-15T00:10:51.415Z,91.00
2018-01-15T00:13:19.047Z,90.20
2018-01-15T00:15:45.933Z,90.20
2018-01-15T00:18:13.493Z,90.80
2018-01-15T00:20:40.339Z,90.80
2018-01-15T00:23:07.917Z,90.60
2018-01-15T00:25:34.746Z,90.60
2018-01-15T00:28:01.677Z,90.70
2018-01-15T00:30:28.497Z,90.80
2018-01-15T00:32:55.394Z,90.70
2018-01-15T00:35:22.238Z,91.10
2018-01-15T00:37:49.154Z,90.90
2018-01-15T00:40:16.746Z,91.00
2018-01-15T00:42:43.641Z,90.90
2018-01-15T00:45:10.449Z,91.20
2018-01-15T00:47:37.349Z,91.20
2018-01-15T00:50:04.192Z,90.80
2018-01-15T00:52:31.793Z,90.70
2018-01-15T00:54:58.601Z,90.70
2018-01-15T00:57:25.517Z,90.70
2018-01-15T00:59:52.389Z,90.70
2018-01-15T01:02:19.959Z,90.70
2018-01-15T01:04:47.538Z,91.10
2018-01-15T01:07:14.479Z,91.10
2018-01-15T01:09:41.400Z,91.00
2018-01-15T01:12:08.241Z,91.30
2018-01-15T01:14:35.086Z,91.10
2018-01-15T01:17:02.065Z,90.70
2018-01-15T01:19:28.914Z,90.90
2018-01-15T01:21:55.750Z,91.20
2018-01-15T01:24:22.571Z,91.40
2018-01-15T01:26:49.477Z,91.10
2018-01-15T01:29:17.045Z,91.00
2018-01-15T01:31:44.657Z,91.00
2018-01-15T01:34:11.570Z,91.00
2018-01-15T01:36:38.478Z,90.60
2018-01-15T01:39:05.378Z,90.90
2018-01-15T01:41:32.214Z,90.90
2018-01-15T01:43:59.045Z,90.80
2018-01-15T01:46:25.949Z,91.20
2018-01-15T01:48:57.605Z,90.90
2018-01-15T01:51:31.322Z,91.20
2018-01-15T01:53:58.904Z,90.90
2018-01-15T01:56:25.849Z,90.90
2018-01-15T01:58:52.672Z,90.40
2018-01-15T02:01:20.262Z,90.60
2018-01-15T02:03:47.117Z,90.60
2018-01-15T02:06:14.002Z,91.00
2018-01-15T02:08:40.838Z,90.70
2018-01-15T02:11:07.705Z,90.80
2018-01-15T02:13:35.298Z,90.70
2018-01-15T02:16:02.234Z,90.70
2018-01-15T02:18:29.071Z,90.70
2018-01-15T02:20:55.897Z,90.70
2018-01-15T02:23:23.548Z,90.50
2018-01-15T02:25:51.241Z,90.80
2018-01-15T02:28:18.113Z,90.80
2018-01-15T02:30:44.967Z,90.80
2018-01-15T02:33:11.824Z,90.90
2018-01-15T02:35:38.782Z,91.00
2018-01-15T02:38:06.397Z,91.20
2018-01-15T02:40:33.247Z,90.80
2018-01-15T02:43:00.155Z,90.80
2018-01-15T02:45:27.002Z,90.20
2018-01-15T02:47:53.938Z,90.70
2018-01-15T02:50:20.810Z,90.70
2018-01-15T02:52:47.671Z,90.80
2018-01-15T02:55:14.498Z,90.90
2018-01-15T02:57:41.496Z,90.80
2018-01-15T03:00:08.376Z,90.70
2018-01-15T03:02:35.202Z,90.60
2018-01-15T03:05:02.090Z,90.40
2018-01-15T03:07:29.790Z,90.10
2018-01-15T03:09:57.426Z,90.10
2018-01-15T03:12:24.257Z,90.00
2018-01-15T03:14:51.085Z,90.20
2018-01-15T03:17:18.836Z,90.50
2018-01-15T03:19:46.431Z,90.50
2018-01-15T03:22:13.338Z,90.50
2018-01-15T03:24:40.203Z,89.70
2018-01-15T03:27:07.073Z,90.00
2018-01-15T03:29:33.915Z,90.10
2018-01-15T03:32:00.795Z,90.00
2018-01-15T03:34:28.417Z,90.50
2018-01-15T03:36:55.381Z,90.50
2018-01-15T03:39:23.029Z,90.60
2018-01-15T03:41:49.873Z,90.60
2018-01-15T03:44:16.693Z,90.80
2018-01-15T03:46:43.590Z,90.70
2018-01-15T03:49:10.458Z,90.40
2018-01-15T03:51:37.275Z,90.00
2018-01-15T03:54:04.834Z,90.10
2018-01-15T03:56:31.789Z,90.10
2018-01-15T03:58:58.630Z,90.50
2018-01-15T04:01:25.501Z,90.30
2018-01-15T04:03:52.349Z,90.30
2018-01-15T04:06:19.173Z,89.50
2018-01-15T04:08:46.026Z,90.10
2018-01-15T04:11:12.898Z,89.80
2018-01-15T04:13:39.754Z,89.80
2018-01-15T04:16:06.693Z,89.80
2018-01-15T04:18:33.568Z,89.40
2018-01-15T04:21:00.461Z,90.10
2018-01-15T04:23:27.344Z,89.90
2018-01-15T04:25:54.369Z,90.50
2018-01-15T04:28:21.210Z,90.30
2018-01-15T04:30:48.072Z,90.10
2018-01-15T04:33:14.949Z,90.90
2018-01-15T04:35:42.586Z,91.00
2018-01-15T04:38:10.182Z,91.80
2018-01-15T04:40:37.046Z,91.70
2018-01-15T04:43:03.913Z,91.20
2018-01-15T04:45:30.745Z,91.30
2018-01-15T04:47:57.598Z,90.90
2018-01-15T04:50:24.479Z,91.20
2018-01-15T04:52:51.349Z,90.50
2018-01-15T04:55:18.185Z,90.60
2018-01-15T04:57:45.069Z,90.20
2018-01-15T05:00:11.933Z,89.80
2018-01-15T05:02:39.618Z,89.50
2018-01-15T05:05:06.484Z,89.50
2018-01-15T05:07:33.344Z,90.70
2018-01-15T05:10:00.217Z,90.20
2018-01-15T05:12:27.858Z,90.60
2018-01-15T05:14:55.949Z,90.30
2018-01-15T05:17:23.013Z,90.30
2018-01-15T05:19:49.866Z,90.00
2018-01-15T05:22:16.761Z,90.00
2018-01-15T05:24:44.898Z,89.90
2018-01-15T05:27:12.022Z,89.90
2018-01-15T05:29:39.054Z,90.20
2018-01-15T05:32:05.982Z,90.80
2018-01-15T05:34:32.841Z,90.70
2018-01-15T05:37:00.554Z,90.70
2018-01-15T05:39:27.397Z,90.70
2018-01-15T05:41:54.231Z,91.40
2018-01-15T05:44:21.081Z,91.10
2018-01-15T05:46:47.993Z,91.00
2018-01-15T05:49:14.853Z,91.60
2018-01-15T05:51:41.706Z,91.30
2018-01-15T05:54:08.673Z,91.20
2018-01-15T05:56:35.559Z,91.10
2018-01-15T05:59:02.442Z,91.10
2018-01-15T06:01:29.323Z,90.80
2018-01-15T06:03:56.950Z,90.50
2018-01-15T06:06:23.821Z,90.40
2018-01-15T06:08:50.666Z,90.50
2018-01-15T06:11:17.719Z,90.50
2018-01-15T06:13:44.675Z,90.30
2018-01-15T06:16:11.630Z,89.90
2018-01-15T06:18:39.248Z,89.20
2018-01-15T06:21:06.098Z,89.20
2018-01-15T06:23:32.973Z,89.60
2018-01-15T06:25:59.873Z,90.00
2018-01-15T06:28:26.790Z,89.90
2018-01-15T06:30:53.635Z,89.60
2018-01-15T06:33:20.513Z,89.00
2018-01-15T06:35:47.397Z,90.10
2018-01-15T06:38:14.997Z,90.00
2018-01-15T06:40:41.898Z,90.00
2018-01-15T06:43:09.486Z,90.00
2018-01-15T06:45:36.406Z,89.90
2018-01-15T06:48:03.976Z,88.90
2018-01-15T06:50:30.953Z,88.90
2018-01-15T06:52:57.813Z,89.90
2018-01-15T06:55:24.645Z,90.10
2018-01-15T06:57:51.525Z,89.90
2018-01-15T07:00:18.358Z,90.10
2018-01-15T07:02:45.217Z,90.00
2018-01-15T07:05:14.470Z,88.70
2018-01-15T07:07:43.483Z,88.60
2018-01-15T07:10:12.859Z,88.30
2018-01-15T07:12:40.700Z,90.00
2018-01-15T07:15:10.223Z,89.30
2018-01-15T07:17:39.764Z,88.20
2018-01-15T07:20:07.735Z,88.10
2018-01-15T07:22:35.085Z,88.10
2018-01-15T07:25:02.035Z,88.50
2018-01-15T07:27:28.989Z,88.70
2018-01-15T07:29:56.306Z,87.70
2018-01-15T07:32:23.522Z,87.70
2018-01-15T07:34:52.821Z,88.40
2018-01-15T07:37:21.568Z,89.20
2018-01-15T07:39:51.880Z,89.00
2018-01-15T07:42:19.809Z,88.10
2018-01-15T07:44:48.998Z,89.20
2018-01-15T07:47:17.329Z,89.00
2018-01-15T07:49:44.988Z,88.20
2018-01-15T07:52:11.866Z,88.20
2018-01-15T07:54:39.497Z,87.50
2018-01-15T07:57:06.361Z,86.60
2018-01-15T07:59:33.198Z,86.90
2018-01-15T08:02:00.118Z,86.60
2018-01-15T08:04:26.978Z,86.10
2018-01-15T08:06:53.865Z,87.10
2018-01-15T08:09:20.710Z,87.60
2018-01-15T08:11:47.566Z,88.40
2018-01-15T08:14:14.414Z,88.30
2018-01-15T08:16:41.274Z,87.80
2018-01-15T08:19:08.114Z,88.30
2018-01-15T08:21:34.970Z,87.80
2018-01-15T08:24:01.854Z,87.10
2018-01-15T08:26:29.450Z,88.10
2018-01-15T08:28:56.398Z,88.10
2018-01-15T08:31:23.266Z,88.90
2018-01-15T08:33:50.118Z,87.60
2018-01-15T08:36:17.017Z,86.60
2018-01-15T08:38:43.853Z,88.00
2018-01-15T08:41:10.693Z,88.00
2018-01-15T08:43:37.569Z,86.50
2018-01-15T08:46:04.413Z,86.60
2018-01-15T08:48:31.281Z,87.60
2018-01-15T08:50:58.117Z,87.10
2018-01-15T08:53:24.979Z,87.40
2018-01-15T08:55:51.839Z,87.60
2018-01-15T08:58:19.405Z,86.80
2018-01-15T09:00:46.283Z,86.80
2018-01-15T09:03:13.194Z,87.50
2018-01-15T09:05:40.075Z,87.60
2018-01-15T09:08:06.922Z,88.30
2018-01-15T09:10:33.787Z,87.10
2018-01-15T09:13:00.619Z,85.40
2018-01-15T09:15:27.494Z,85.60
2018-01-15T09:17:55.090Z,85.90
2018-01-15T09:20:21.979Z,85.90
2018-01-15T09:22:48.850Z,85.00
2018-01-15T09:25:16.422Z,87.00
2018-01-15T09:27:43.270Z,87.00
2018-01-15T09:30:10.121Z,86.70
2018-01-15T09:32:36.953Z,86.90
2018-01-15T09:35:03.786Z,86.90
2018-01-15T09:37:30.680Z,87.40
2018-01-15T09:39:57.507Z,85.90
2018-01-15T09:42:24.390Z,87.40
2018-01-15T09:44:51.222Z,86.60
2018-01-15T09:47:18.065Z,86.10
2018-01-15T09:49:44.913Z,85.10
2018-01-15T09:52:11.749Z,84.50
2018-01-15T09:54:38.598Z,85.20
2018-01-15T09:57:05.470Z,85.10
2018-01-15T09:59:33.047Z,84.70
2018-01-15T10:01:59.909Z,84.60
2018-01-15T10:04:26.773Z,85.30
2018-01-15T10:06:53.666Z,87.00
2018-01-15T10:09:20.521Z,87.50
2018-01-15T10:11:47.397Z,85.30
2018-01-15T10:14:14.255Z,85.30
2018-01-15T10:16:41.101Z,86.30
2018-01-15T10:19:08.084Z,87.30
2018-01-15T10:21:34.934Z,86.80
2018-01-15T10:24:01.774Z,87.90
2018-01-15T10:26:28.640Z,89.00
2018-01-15T10:28:55.482Z,89.10
2018-01-15T10:31:22.330Z,89.20
2018-01-15T10:33:49.201Z,87.70
2018-01-15T10:36:16.033Z,88.30
2018-01-15T10:38:42.897Z,88.60
2018-01-15T10:41:09.749Z,88.80
2018-01-15T10:43:36.624Z,87.60
2018-01-15T10:46:03.474Z,87.40
2018-01-15T10:48:30.306Z,88.30
2018-01-15T10:50:57.154Z,88.60
2018-01-15T10:53:24.026Z,89.00
2018-01-15T10:55:50.865Z,87.90
2018-01-15T10:58:17.697Z,87.50
2018-01-15T11:00:50.471Z,88.90
2018-01-15T11:03:17.331Z,89.30
2018-01-15T11:05:44.219Z,89.20
2018-01-15T11:08:11.817Z,88.20
2018-01-15T11:10:38.714Z,88.20
2018-01-15T11:13:05.544Z,88.10
2018-01-15T11:15:32.418Z,88.10
2018-01-15T11:17:59.274Z,89.50
2018-01-15T11:20:26.286Z,88.30
2018-01-15T11:22:53.105Z,87.60
2018-01-15T11:25:19.937Z,88.00
2018-01-15T11:27:46.802Z,87.00
2018-01-15T11:30:13.633Z,88.00
2018-01-15T11:32:40.515Z,87.30
2018-01-15T11:35:08.089Z,88.10
2018-01-15T11:37:34.917Z,88.00
2018-01-15T11:40:02.538Z,89.10
2018-01-15T11:42:29.379Z,89.10
2018-01-15T11:44:56.241Z,88.40
2018-01-15T11:47:23.081Z,87.50
2018-01-15T11:49:49.938Z,87.40
2018-01-15T11:52:16.798Z,88.70
2018-01-15T11:54:44.402Z,85.40
2018-01-15T11:57:11.265Z,85.40
2018-01-15T11:59:38.129Z,86.20
2018-01-15T12:02:05.722Z,88.00
2018-01-15T12:04:32.618Z,87.90
2018-01-15T12:06:59.497Z,88.70
2018-01-15T12:09:27.081Z,87.20
2018-01-15T12:11:53.926Z,87.20
2018-01-15T12:14:20.797Z,87.20
2018-01-15T12:16:47.653Z,87.00
2018-01-15T12:19:14.479Z,88.60
2018-01-15T12:21:41.393Z,87.80
2018-01-15T12:24:08.237Z,87.40
2018-01-15T12:26:35.220Z,87.30
2018-01-15T12:29:02.063Z,87.80
2018-01-15T12:31:28.930Z,88.40
2018-01-15T12:33:56.539Z,87.80
2018-01-15T12:36:23.422Z,87.70
2018-01-15T12:38:50.265Z,90.00
2018-01-15T12:41:17.102Z,87.40
2018-01-15T12:43:43.946Z,88.90
2018-01-15T12:46:10.844Z,88.60
2018-01-15T12:48:37.678Z,89.10
2018-01-15T12:51:04.510Z,88.30
2018-01-15T12:53:31.369Z,87.30
2018-01-15T12:55:58.247Z,87.70
2018-01-15T12:58:25.086Z,88.90
2018-01-15T13:00:51.929Z,88.00
2018-01-15T13:03:19.534Z,89.20
2018-01-15T13:05:50.358Z,89.30
2018-01-15T13:08:30.138Z,90.00
2018-01-15T13:10:56.999Z,90.00
2018-01-15T13:13:23.874Z,89.50
2018-01-15T13:15:50.734Z,89.90
2018-01-15T13:18:18.354Z,88.70
2018-01-15T13:20:45.178Z,88.60
2018-01-15T13:23:12.073Z,88.90
2018-01-15T13:25:38.918Z,89.90
2018-01-15T13:28:05.826Z,90.00
2018-01-15T13:30:32.665Z,86.80
2018-01-15T13:32:59.521Z,86.10
2018-01-15T13:35:26.380Z,87.40
2018-01-15T13:37:53.238Z,87.80
2018-01-15T13:40:20.805Z,87.30
2018-01-15T13:42:48.426Z,88.80
2018-01-15T13:45:16.273Z,88.80
2018-01-15T13:47:43.113Z,89.60
2018-01-15T13:50:09.981Z,88.80
2018-01-15T13:52:36.838Z,87.00
2018-01-15T13:55:03.709Z,87.70
2018-01-15T13:57:31.326Z,87.90
2018-01-15T13:59:58.162Z,87.90
2018-01-15T14:02:25.010Z,88.90
2018-01-15T14:04:51.882Z,89.50
2018-01-15T14:07:19.512Z,87.30
2018-01-15T14:09:46.336Z,87.30
2018-01-15T14:12:13.218Z,87.70
2018-01-15T14:14:40.066Z,88.30
2018-01-15T14:17:06.942Z,86.90
2018-01-15T14:19:34.537Z,88.50
2018-01-15T14:22:01.418Z,88.40
2018-01-15T14:24:28.257Z,88.10
2018-01-15T14:26:55.137Z,87.40
2018-01-15T14:29:22.021Z,88.10
2018-01-15T14:31:48.837Z,87.30
2018-01-15T14:34:15.810Z,87.40
2018-01-15T14:36:42.625Z,88.50
2018-01-15T14:39:10.185Z,87.90
2018-01-15T14:41:37.039Z,87.80
2018-01-15T14:44:03.892Z,87.20
2018-01-15T14:46:30.758Z,87.90
2018-01-15T14:48:57.593Z,88.00
2018-01-15T14:51:24.467Z,89.60
2018-01-15T14:53:51.273Z,89.40
2018-01-15T14:56:18.230Z,87.70
2018-01-15T14:58:45.082Z,89.10
2018-01-15T15:01:11.926Z,89.80
2018-01-15T15:03:38.746Z,88.50
2018-01-15T15:06:05.650Z,88.30
2018-01-15T15:08:32.481Z,89.50
2018-01-15T15:11:00.047Z,88.80
2018-01-15T15:15:54.571Z,88.70
2018-01-15T15:18:21.422Z,88.70
2018-01-15T15:20:48.277Z,88.80
2018-01-15T15:23:15.120Z,89.20
2018-01-15T15:25:42.727Z,89.10
2018-01-15T15:28:10.009Z,89.10
2018-01-15T15:30:36.965Z,88.40
2018-01-15T15:33:03.810Z,89.00
2018-01-15T15:35:30.658Z,89.50
2018-01-15T15:37:57.618Z,88.70
2018-01-15T15:40:24.448Z,89.00
2018-01-15T15:42:51.279Z,89.10
2018-01-15T15:45:18.145Z,88.30
2018-01-15T15:47:44.998Z,88.40
2018-01-15T15:50:12.186Z,88.50
2018-01-15T15:52:39.850Z,89.50
2018-01-15T15:55:07.547Z,89.40
2018-01-15T15:57:35.542Z,88.80
2018-01-15T16:00:02.549Z,89.90
2018-01-15T16:02:29.373Z,90.00
2018-01-15T16:04:57.065Z,90.60
2018-01-15T16:07:23.925Z,90.10
2018-01-15T16:09:50.793Z,89.30
2018-01-15T16:12:18.383Z,89.60
2018-01-15T16:14:45.246Z,89.50
2018-01-15T16:17:12.125Z,89.70
2018-01-15T16:19:39.090Z,89.30
2018-01-15T16:22:18.921Z,90.60
2018-01-15T16:24:45.798Z,90.50
2018-01-15T16:27:13.357Z,90.60
2018-01-15T16:29:40.282Z,90.60
2018-01-15T16:32:07.142Z,90.70
2018-01-15T16:34:34.018Z,90.80
2018-01-15T16:37:00.915Z,90.70
2018-01-15T16:39:28.519Z,91.10
2018-01-15T16:41:55.385Z,91.10
2018-01-15T16:44:22.246Z,91.30
2018-01-15T16:46:49.107Z,91.30
2018-01-15T16:49:15.963Z,90.60
2018-01-15T16:51:42.851Z,91.10
2018-01-15T16:54:09.690Z,91.20
2018-01-15T16:56:36.537Z,90.80
2018-01-15T16:59:03.381Z,91.10
2018-01-15T17:01:30.233Z,91.10
2018-01-15T17:03:57.118Z,91.30
2018-01-15T17:06:23.934Z,91.10
2018-01-15T17:08:51.553Z,91.10
2018-01-15T17:11:18.377Z,91.10
2018-01-15T17:13:52.254Z,91.30
2018-01-15T17:16:19.836Z,91.30
2018-01-15T17:18:47.394Z,90.70
2018-01-15T17:21:14.262Z,90.70
2018-01-15T17:23:41.173Z,90.90
2018-01-15T17:26:08.050Z,90.40
2018-01-15T17:28:34.913Z,90.70
2018-01-15T17:31:01.757Z,90.80
2018-01-15T17:33:28.678Z,91.00
2018-01-15T17:35:55.725Z,90.70
2018-01-15T17:38:22.944Z,90.80
2018-01-15T17:40:49.802Z,90.50
2018-01-15T17:43:16.693Z,90.80
2018-01-15T17:45:43.538Z,90.60
2018-01-15T17:48:10.385Z,90.50
2018-01-15T17:50:37.266Z,90.70
2018-01-15T17:53:04.134Z,91.00
2018-01-15T17:55:30.981Z,90.90
2018-01-15T17:57:57.814Z,90.60
2018-01-15T18:00:24.694Z,90.70
2018-01-15T18:02:51.561Z,90.80
2018-01-15T18:05:19.146Z,90.60
2018-01-15T18:07:46.163Z,90.60
2018-01-15T18:10:13.263Z,91.00
2018-01-15T18:12:40.154Z,91.40
2018-01-15T18:15:07.009Z,91.80
2018-01-15T18:17:34.613Z,92.00
2018-01-15T18:20:01.431Z,91.90
2018-01-15T18:22:28.318Z,91.90
2018-01-15T18:24:55.472Z,91.40
2018-01-15T18:27:22.385Z,91.30
2018-01-15T18:29:49.246Z,91.50
2018-01-15T18:32:16.098Z,91.00
2018-01-15T18:34:42.966Z,90.60
2018-01-15T18:37:09.832Z,90.90
2018-01-15T18:39:36.718Z,90.90
2018-01-15T18:42:03.577Z,90.80
2018-01-15T18:44:30.442Z,91.10
2018-01-15T18:46:57.308Z,91.40
2018-01-15T18:49:24.880Z,91.20
2018-01-15T18:51:53.185Z,91.00
2018-01-15T18:54:20.046Z,91.00
2018-01-15T18:56:46.902Z,91.70
2018-01-15T18:59:13.788Z,91.30
2018-01-15T19:01:40.653Z,91.20
2018-01-15T19:04:07.510Z,90.90
2018-01-15T19:06:34.367Z,91.20
2018-01-15T19:09:01.234Z,91.40
2018-01-15T19:11:28.110Z,91.30
2018-01-15T19:13:54.961Z,91.70
2018-01-15T19:16:21.863Z,91.40
2018-01-15T19:18:48.947Z,91.80
2018-01-15T19:21:15.873Z,91.90
2018-01-15T19:23:43.129Z,91.60
2018-01-15T19:26:11.131Z,91.30
2018-01-15T19:28:38.145Z,91.30
2018-01-15T19:31:05.885Z,91.20
2018-01-15T19:33:33.599Z,91.50
2018-01-15T19:36:04.606Z,91.50
2018-01-15T19:38:34.612Z,91.40
2018-01-15T19:41:03.290Z,90.60
2018-01-15T19:43:36.631Z,90.60
2018-01-15T19:46:09.647Z,90.20
2018-01-15T19:48:42.798Z,90.60
2018-01-15T19:54:20.414Z,91.20
2018-01-15T19:56:53.793Z,91.20
2018-01-15T19:59:32.957Z,91.20
2018-01-15T20:02:06.032Z,91.30
2018-01-15T20:07:34.429Z,91.50
2018-01-15T20:10:07.697Z,91.40
2018-01-15T20:12:34.791Z,91.20
2018-01-15T20:15:04.664Z,91.00
2018-01-15T20:17:31.731Z,91.20
2018-01-15T20:19:58.614Z,91.10
2018-01-15T20:22:25.624Z,90.80
2018-01-15T20:24:55.219Z,90.70
2018-01-15T20:27:22.366Z,90.60
2018-01-15T20:29:49.235Z,90.30
2018-01-15T20:32:16.964Z,90.90
2018-01-15T20:34:44.937Z,91.10
2018-01-15T20:37:12.072Z,91.10
2018-01-15T20:39:40.151Z,90.60
2018-01-15T20:42:07.326Z,90.60
2018-01-15T20:44:34.274Z,91.10
2018-01-15T20:47:02.178Z,90.60
2018-01-15T20:49:30.045Z,90.20
2018-01-15T20:51:57.148Z,90.20
2018-01-15T20:54:24.014Z,91.00
2018-01-15T20:56:51.106Z,90.00
2018-01-15T20:59:18.055Z,89.40
2018-01-15T21:01:45.758Z,88.60
2018-01-15T21:04:13.714Z,88.60
2018-01-15T21:06:41.715Z,89.00
2018-01-15T21:09:08.765Z,88.90
2018-01-15T21:11:36.550Z,89.20
2018-01-15T21:14:03.678Z,89.10
2018-01-15T21:16:31.442Z,88.90
2018-01-15T21:18:58.345Z,88.80
2018-01-15T21:21:26.017Z,90.10
2018-01-15T21:23:54.222Z,90.10
2018-01-15T21:26:21.274Z,89.90
2018-01-15T21:28:49.004Z,89.00
2018-01-15T21:31:16.047Z,88.90
2018-01-15T21:33:43.246Z,88.50
2018-01-15T21:36:10.158Z,88.30
2018-01-15T21:38:37.075Z,88.20
2018-01-15T21:41:04.025Z,88.10
2018-01-15T21:43:31.642Z,87.60
2018-01-15T21:45:58.535Z,87.50
2018-01-15T21:48:25.382Z,87.60
2018-01-15T21:50:52.274Z,87.40
2018-01-15T21:53:19.124Z,87.60
2018-01-15T21:55:46.062Z,87.00
2018-01-15T21:58:12.918Z,87.80
2018-01-15T22:00:39.892Z,88.00
2018-01-15T22:03:06.835Z,86.60
2018-01-15T22:05:34.507Z,87.30
2018-01-15T22:08:02.094Z,87.00
2018-01-15T22:10:28.970Z,87.80
2018-01-15T22:12:55.814Z,87.20
2018-01-15T22:15:22.976Z,87.00
2018-01-15T22:17:50.092Z,87.60
2018-01-15T22:20:17.017Z,88.30
2018-01-15T22:22:43.844Z,88.40
2018-01-15T22:25:10.721Z,88.00
2018-01-15T22:27:37.586Z,88.70
2018-01-15T22:30:04.451Z,89.30
2018-01-15T22:32:32.043Z,88.40
2018-01-15T22:34:58.945Z,88.40
2018-01-15T22:37:25.774Z,87.40
2018-01-15T22:39:52.646Z,88.90
2018-01-15T22:42:20.261Z,89.90
2018-01-15T22:44:47.142Z,89.70
2018-01-15T22:47:14.774Z,90.40
2018-01-15T22:49:41.594Z,90.40
2018-01-15T22:52:08.434Z,89.50
2018-01-15T22:54:35.294Z,89.40
2018-01-15T22:57:02.137Z,89.50
2018-01-15T22:59:28.994Z,89.10
2018-01-15T23:01:55.821Z,88.70
2018-01-15T23:04:22.705Z,90.00
2018-01-15T23:06:50.293Z,89.80
2018-01-15T23:09:17.861Z,90.20
2018-01-15T23:11:45.426Z,90.20
2018-01-15T23:14:12.322Z,90.20
2018-01-15T23:16:39.953Z,89.40
2018-01-15T23:19:06.795Z,89.30
2018-01-15T23:21:33.609Z,90.00
2018-01-15T23:24:00.462Z,90.30
2018-01-15T23:26:27.353Z,90.40
2018-01-15T23:28:54.225Z,90.30
2018-01-15T23:31:21.113Z,90.40
2018-01-15T23:33:48.003Z,90.70
2018-01-15T23:36:15.595Z,90.40
2018-01-15T23:38:42.469Z,90.40
2018-01-15T23:41:09.321Z,90.60
2018-01-15T23:43:36.190Z,90.50
2018-01-15T23:46:03.990Z,90.40
2018-01-15T23:48:30.897Z,90.40
2018-01-15T23:50:58.529Z,90.50
2018-01-15T23:53:25.369Z,90.50
2018-01-15T23:55:52.294Z,91.00
2018-01-15T23:58:19.209Z,91.00
